Pagrindinis puslapis
METAR-TAF:

METAR-TAF

Oro uostai :

Aleksandrija-Borg El Arab, Egiptas

platuma: 31-31N, ilguma: 030-10E, Aukštis: 54 m

Dabartinis oras

Ataskaita buvo paskelbta 1 valandą ir 5 minutes, ne 04:00 UTC
Vėjas 3 kt iš Vakarų
Temperatūra 10°C
Drėgmė 87%
Slėgis 1013 hPa
Matomumas 10 km arba daugiau
nėra debesų žemiau 1500 m ir nėra kamuolinių lietaus debesų

METAR: HEBA 300400Z 28003KT CAVOK 10/08 Q1013 NOSIG

Laikas: 07:05 (05:05 UTC)

Prognozė

Ataskaita buvo paskelbta 6 valandos ir 5 minutes, ne 23:00 UTC
Prognozė galioja nuo 30 metu 00 UTC su 31 metu 06 UTC
Vėjas 8 kt iš Šiaurės Vakarų
Matomumas 10 km arba daugiau
nėra debesų žemiau 1500 m ir nėra kamuolinių lietaus debesų

TAF: HEBA 292300Z 3000/3106 31008KT CAVOK

Orai ataskaitas ir orų prognozės (METAR, TAF).

turimą stotys yra geltonos ir raudonos taškus žemėlapyje.

Perkelti pele per norėdami pamatyti stoties vardą.

Tada spustelėkite, norėdami matyti oro stebėjimo ir prognozės.

Norėdami pakeisti žemėlapį: spustelėkite ant žalios mygtukų su juodo kryžiaus žemyn,; žalią mygtuką su brūkšneliu, jei norite nutolinti; arba žalių rodyklių gretimoms žemėlapius.


METAR-TAF: